createdAt,value
2018-12-10T00:00:26.326Z,6.61
2018-12-10T00:01:27.827Z,6.55
2018-12-10T00:02:29.211Z,6.55
2018-12-10T00:03:30.606Z,6.55
2018-12-10T00:04:32.116Z,6.63
2018-12-10T00:05:33.496Z,6.63
2018-12-10T00:06:34.878Z,6.68
2018-12-10T00:07:36.338Z,6.58
2018-12-10T00:08:37.717Z,6.65
2018-12-10T00:09:39.100Z,6.72
2018-12-10T00:10:41.637Z,6.58
2018-12-10T00:11:41.952Z,6.69
2018-12-10T00:12:43.332Z,6.58
2018-12-10T00:13:44.676Z,6.58
2018-12-10T00:14:46.057Z,6.71
2018-12-10T00:15:47.435Z,6.65
2018-12-10T00:16:48.818Z,6.64
2018-12-10T00:17:50.198Z,6.55
2018-12-10T00:18:51.573Z,6.53
2018-12-10T00:19:52.951Z,6.55
2018-12-10T00:20:54.325Z,6.58
2018-12-10T00:21:55.711Z,6.55
2018-12-10T00:22:57.089Z,6.54
2018-12-10T00:23:58.471Z,6.55
2018-12-10T00:24:59.891Z,6.55
2018-12-10T00:26:01.267Z,6.61
2018-12-10T00:27:02.659Z,6.54
2018-12-10T00:28:04.182Z,6.57
2018-12-10T00:29:05.557Z,6.54
2018-12-10T00:30:06.940Z,6.57
2018-12-10T00:31:08.324Z,6.58
2018-12-10T00:32:09.702Z,6.51
2018-12-10T00:33:11.082Z,6.55
2018-12-10T00:34:12.464Z,6.63
2018-12-10T00:35:13.840Z,6.54
2018-12-10T00:36:15.224Z,6.55
2018-12-10T00:37:16.610Z,6.57
2018-12-10T00:38:18.001Z,6.60
2018-12-10T00:39:19.380Z,6.61
2018-12-10T00:40:20.782Z,6.54
2018-12-10T00:41:22.160Z,6.54
2018-12-10T00:42:23.720Z,6.57
2018-12-10T00:43:25.100Z,6.55
2018-12-10T00:44:26.484Z,6.60
2018-12-10T00:45:28.070Z,6.53
2018-12-10T00:46:29.448Z,6.48
2018-12-10T00:47:30.830Z,6.53
2018-12-10T00:48:32.422Z,6.48
2018-12-10T00:49:33.702Z,6.42
2018-12-10T00:50:35.087Z,6.38
2018-12-10T00:51:36.650Z,6.43
2018-12-10T00:52:38.031Z,6.40
2018-12-10T00:53:39.543Z,6.43
2018-12-10T00:54:41.053Z,6.40
2018-12-10T00:55:42.433Z,6.46
2018-12-10T00:56:43.823Z,6.45
2018-12-10T00:57:45.470Z,6.50
2018-12-10T00:58:46.739Z,6.43
2018-12-10T00:59:48.115Z,6.39
2018-12-10T01:00:49.502Z,6.42
2018-12-10T01:01:50.977Z,6.42
2018-12-10T01:02:52.348Z,6.40
2018-12-10T01:03:53.725Z,6.39
2018-12-10T01:04:55.156Z,6.43
2018-12-10T01:05:56.528Z,6.43
2018-12-10T01:06:58.800Z,6.36
2018-12-10T01:07:59.260Z,6.30
2018-12-10T01:09:00.646Z,6.32
2018-12-10T01:10:02.022Z,6.27
2018-12-10T01:11:03.402Z,6.25
2018-12-10T01:12:04.779Z,6.25
2018-12-10T11:02:51.257Z,5.95
2018-12-10T11:03:52.640Z,5.90
2018-12-10T11:04:54.021Z,5.95
2018-12-10T11:05:55.400Z,5.90
2018-12-10T11:06:56.783Z,5.93
2018-12-10T11:07:58.687Z,5.99
2018-12-10T11:09:00.067Z,6.01
2018-12-10T11:10:01.461Z,5.98
2018-12-10T11:11:02.865Z,5.99
2018-12-10T11:12:04.314Z,5.96
2018-12-10T11:13:05.691Z,5.99
2018-12-10T11:14:07.073Z,5.99
2018-12-10T11:15:08.457Z,6.05
2018-12-10T11:16:09.850Z,6.01
2018-12-10T11:17:11.227Z,6.08
2018-12-10T11:18:12.614Z,6.03
2018-12-10T11:19:13.991Z,6.08
2018-12-10T11:20:15.388Z,6.14
2018-12-10T11:21:16.768Z,6.16
2018-12-10T11:22:18.708Z,6.17
2018-12-10T11:23:20.098Z,6.17
2018-12-10T11:24:21.511Z,6.13
2018-12-10T11:25:22.882Z,6.27
2018-12-10T11:26:24.270Z,6.21
2018-12-10T11:27:25.656Z,6.25
2018-12-10T11:28:27.042Z,6.33
2018-12-10T11:29:28.427Z,6.40
2018-12-10T11:30:29.805Z,6.30
2018-12-10T11:31:31.195Z,6.30
2018-12-10T11:32:32.585Z,6.39
2018-12-10T11:33:33.975Z,6.32
2018-12-10T11:34:35.353Z,6.45
2018-12-10T11:35:36.742Z,6.42
2018-12-10T11:36:38.123Z,6.42
2018-12-10T11:37:40.467Z,6.45
2018-12-10T11:38:41.857Z,6.50
2018-12-10T11:39:43.343Z,6.42
2018-12-10T11:40:44.590Z,6.45
2018-12-10T11:41:46.615Z,6.45
2018-12-10T11:42:47.340Z,6.43
2018-12-10T11:43:48.723Z,6.45
2018-12-10T11:44:50.107Z,6.54
2018-12-10T11:45:51.492Z,6.51
2018-12-10T11:46:52.878Z,6.58
2018-12-10T11:47:54.266Z,6.57
2018-12-10T11:48:55.649Z,6.60
2018-12-10T11:49:57.038Z,6.63
2018-12-10T11:50:58.424Z,6.50
2018-12-10T11:51:59.825Z,6.61
2018-12-10T11:53:01.202Z,6.53
2018-12-10T11:54:03.876Z,6.51
2018-12-10T11:55:03.941Z,6.53
2018-12-10T11:56:05.319Z,6.57
2018-12-10T11:57:06.704Z,6.51
2018-12-10T11:58:08.103Z,6.48
2018-12-10T11:59:09.497Z,6.42
2018-12-10T12:00:10.889Z,6.51
2018-12-10T12:01:12.292Z,6.50
2018-12-10T12:02:13.669Z,6.55
2018-12-10T12:03:15.067Z,6.54
2018-12-10T12:04:16.455Z,6.57
2018-12-10T12:05:17.851Z,6.54
2018-12-10T12:06:19.239Z,6.63
2018-12-10T12:07:20.625Z,6.72
2018-12-10T12:08:22.011Z,6.68
2018-12-10T12:09:23.405Z,6.76
2018-12-10T12:10:24.793Z,6.78
2018-12-10T12:11:26.176Z,6.86
2018-12-10T12:12:27.569Z,6.97
2018-12-10T12:13:28.955Z,6.99
2018-12-10T12:14:30.345Z,7.09
2018-12-10T12:15:31.737Z,7.05
2018-12-10T12:16:33.120Z,6.97
2018-12-10T12:17:35.385Z,7.04
2018-12-10T12:18:36.770Z,6.96
2018-12-10T12:19:38.154Z,6.96
2018-12-10T12:20:39.534Z,7.11
2018-12-10T12:21:40.921Z,7.09
2018-12-10T12:22:42.329Z,7.19
2018-12-10T12:23:43.695Z,7.14
2018-12-10T12:24:45.082Z,7.24
2018-12-10T12:25:46.470Z,7.30
2018-12-10T12:26:47.993Z,7.34
2018-12-10T12:27:49.208Z,7.36
2018-12-10T12:28:50.581Z,7.27
2018-12-10T12:29:51.989Z,7.41
2018-12-10T12:30:53.381Z,7.29
2018-12-10T12:31:54.772Z,7.37
2018-12-10T12:32:56.153Z,7.33
2018-12-10T12:33:57.541Z,7.26
2018-12-10T12:34:58.925Z,7.23
2018-12-10T12:36:01.005Z,7.12
2018-12-10T12:37:01.678Z,7.15
2018-12-10T12:38:03.051Z,7.18
2018-12-10T12:39:04.446Z,7.01
2018-12-10T12:40:05.860Z,6.97
2018-12-10T12:41:07.225Z,7.00
2018-12-10T12:42:08.616Z,6.97
2018-12-10T12:43:15.745Z,6.83
2018-12-10T12:44:11.346Z,6.81
2018-12-10T12:45:12.736Z,6.79
2018-12-10T12:46:14.136Z,6.81
2018-12-10T12:47:15.513Z,6.87
2018-12-10T12:48:16.904Z,6.78
2018-12-10T12:49:18.293Z,6.81
2018-12-10T12:50:19.685Z,6.87
2018-12-10T12:51:21.066Z,6.82
2018-12-10T12:52:22.452Z,6.68
2018-12-10T12:53:23.846Z,6.69
2018-12-10T12:54:25.244Z,6.68
2018-12-10T12:55:26.629Z,6.69
2018-12-10T12:56:28.015Z,6.65
2018-12-10T12:57:29.404Z,6.71
2018-12-10T12:58:30.787Z,6.72
2018-12-10T12:59:32.171Z,6.68
2018-12-10T13:00:41.505Z,6.65
2018-12-10T13:01:34.910Z,6.57
2018-12-10T13:02:36.302Z,6.55
2018-12-10T13:03:37.686Z,6.58
2018-12-10T13:04:39.082Z,6.53
2018-12-10T13:05:40.452Z,6.58
2018-12-10T13:06:41.833Z,6.64
2018-12-10T13:07:43.223Z,6.55
2018-12-10T13:08:44.626Z,6.58
2018-12-10T13:09:46.016Z,6.72
2018-12-10T13:10:47.414Z,6.64
2018-12-10T13:11:48.806Z,6.68
2018-12-10T13:12:50.189Z,6.65
2018-12-10T13:13:51.582Z,6.71
2018-12-10T13:14:52.963Z,6.58
2018-12-10T13:15:54.342Z,6.64
2018-12-10T13:16:55.727Z,6.65
2018-12-10T13:17:57.882Z,6.57
2018-12-10T13:18:59.268Z,6.69
2018-12-10T13:20:00.654Z,6.63
2018-12-10T13:21:02.038Z,6.72
2018-12-10T13:22:03.421Z,6.55
2018-12-10T13:23:04.808Z,6.54
2018-12-10T13:24:06.190Z,6.61
2018-12-10T13:25:07.582Z,6.51
2018-12-10T13:26:08.971Z,6.53
2018-12-10T13:27:10.354Z,6.63
2018-12-10T13:28:11.734Z,6.58
2018-12-10T13:29:13.285Z,6.55
2018-12-10T13:30:14.477Z,6.57
2018-12-10T13:31:15.861Z,6.55
2018-12-10T13:32:17.267Z,6.55
2018-12-10T13:33:18.651Z,6.53
2018-12-10T13:34:20.036Z,6.45
2018-12-10T13:35:21.419Z,6.42
2018-12-10T13:36:22.804Z,6.39
2018-12-10T13:37:24.192Z,6.38
2018-12-10T13:38:25.571Z,6.40
2018-12-10T13:39:26.958Z,6.48
2018-12-10T13:40:28.341Z,6.48
2018-12-10T13:41:29.732Z,6.38
2018-12-10T13:42:31.115Z,6.36
2018-12-10T13:43:32.497Z,6.36
2018-12-10T13:44:33.876Z,6.28
2018-12-10T13:45:35.262Z,6.21
2018-12-10T13:46:36.639Z,6.28
2018-12-10T13:47:38.032Z,6.33
2018-12-10T13:48:39.419Z,6.32
2018-12-10T13:49:40.807Z,6.27
2018-12-10T13:50:42.184Z,6.28
2018-12-10T13:51:43.573Z,6.24
2018-12-10T13:52:44.952Z,6.19
2018-12-10T13:53:46.335Z,6.14
2018-12-10T13:54:47.820Z,6.19
2018-12-10T13:55:49.058Z,6.14
2018-12-10T13:56:50.445Z,6.19
2018-12-10T13:57:51.838Z,6.14
2018-12-10T13:58:53.224Z,6.13
2018-12-10T13:59:54.607Z,6.13
2018-12-10T14:00:55.997Z,6.08
2018-12-10T14:01:57.384Z,6.03
2018-12-10T14:02:58.783Z,6.01
2018-12-10T14:04:00.172Z,6.01
2018-12-10T14:05:01.553Z,6.05
2018-12-10T14:06:02.908Z,6.06
2018-12-10T14:07:04.305Z,5.99
2018-12-10T14:08:05.669Z,5.95
2018-12-10T14:09:08.126Z,5.93
2018-12-10T14:10:08.401Z,5.96
2018-12-10T14:11:09.790Z,5.85
2018-12-10T14:12:11.224Z,5.84
2018-12-10T14:13:12.616Z,5.83
2018-12-10T14:14:13.997Z,5.83
2018-12-10T14:15:15.391Z,5.77
2018-12-10T14:16:16.775Z,5.78
2018-12-10T14:17:18.165Z,5.84
2018-12-10T14:18:19.551Z,5.81
2018-12-10T14:19:20.942Z,5.78
2018-12-10T14:20:22.326Z,5.70
2018-12-10T14:21:23.710Z,5.80
2018-12-10T14:22:25.104Z,5.74
2018-12-10T14:23:26.484Z,5.74
2018-12-10T14:24:27.867Z,5.78
2018-12-10T14:25:29.260Z,5.67
2018-12-10T14:26:30.655Z,5.66
2018-12-10T14:27:32.152Z,5.69
2018-12-10T14:28:33.381Z,5.67
2018-12-10T14:29:34.775Z,5.75
2018-12-10T14:30:36.151Z,5.63
2018-12-10T14:31:37.544Z,5.63
2018-12-10T14:32:38.937Z,5.66
2018-12-10T14:33:40.323Z,5.70
2018-12-10T14:34:41.705Z,5.74
2018-12-10T14:35:43.080Z,5.74
2018-12-10T14:36:44.463Z,5.63
2018-12-10T14:37:45.842Z,5.63
2018-12-10T14:38:47.222Z,5.62
2018-12-10T14:39:48.614Z,5.58
2018-12-10T14:40:49.988Z,5.55
2018-12-10T14:41:51.378Z,5.51
2018-12-10T14:42:52.776Z,5.62
2018-12-10T14:43:54.158Z,5.58
2018-12-10T14:44:55.539Z,5.52
2018-12-10T14:45:56.934Z,5.55
2018-12-10T14:46:58.319Z,5.40
2018-12-10T14:47:59.704Z,5.49
2018-12-10T14:49:01.108Z,5.41
2018-12-10T14:50:02.478Z,5.48
2018-12-10T14:51:03.869Z,5.49
2018-12-10T14:52:05.256Z,5.40
2018-12-10T14:53:06.647Z,5.44
2018-12-10T14:54:08.028Z,5.47
2018-12-10T14:55:09.421Z,5.44
2018-12-10T14:56:10.815Z,5.45
2018-12-10T14:57:12.193Z,5.41
2018-12-10T14:58:13.581Z,5.27
2018-12-10T14:59:14.966Z,5.26
2018-12-10T15:00:16.342Z,5.32
2018-12-10T15:01:17.715Z,5.32
2018-12-10T15:02:19.099Z,5.33
2018-12-10T15:03:20.481Z,5.30
2018-12-10T15:04:21.862Z,5.29
2018-12-10T15:05:23.250Z,5.26
2018-12-10T15:06:24.636Z,5.30
2018-12-10T15:07:26.016Z,5.35
2018-12-10T15:08:28.365Z,5.32
2018-12-10T15:09:28.735Z,5.29
2018-12-10T15:10:30.122Z,5.30
2018-12-10T15:11:31.498Z,5.37
2018-12-10T15:12:32.881Z,5.26
2018-12-10T15:13:35.188Z,5.26
2018-12-10T15:14:38.686Z,5.23
2018-12-10T15:15:41.777Z,5.23
2018-12-10T15:16:43.166Z,5.23
2018-12-10T15:17:44.548Z,5.22
2018-12-10T15:18:47.143Z,5.26
2018-12-10T15:19:48.518Z,5.17
2018-12-10T15:20:49.903Z,5.24
2018-12-10T15:21:51.283Z,5.24
2018-12-10T15:22:52.846Z,5.23
2018-12-10T15:23:57.097Z,5.11
2018-12-10T15:24:59.673Z,5.09
2018-12-10T15:26:03.483Z,5.12
2018-12-10T15:27:04.869Z,5.14
2018-12-10T15:28:07.820Z,5.22
2018-12-10T15:29:09.204Z,5.15
2018-12-10T15:30:10.627Z,5.20
2018-12-10T15:31:18.433Z,5.11
2018-12-10T15:32:26.627Z,5.15
2018-12-10T15:33:27.960Z,5.19
2018-12-10T15:34:29.350Z,5.09
2018-12-10T15:35:33.612Z,5.09
2018-12-10T15:36:38.308Z,5.17
2018-12-10T15:37:43.963Z,5.12
2018-12-10T15:38:46.274Z,5.17
2018-12-10T15:39:47.659Z,5.19
2018-12-10T15:40:53.108Z,5.17
2018-12-10T15:41:54.493Z,5.15
2018-12-10T15:42:59.308Z,5.15
2018-12-10T15:44:01.979Z,5.09
2018-12-10T15:45:03.361Z,5.05
2018-12-10T15:46:04.743Z,5.12
2018-12-10T15:47:09.165Z,5.12
2018-12-10T15:48:10.991Z,5.11
2018-12-10T15:49:17.461Z,5.09
2018-12-10T15:50:18.837Z,5.12
2018-12-10T15:51:21.434Z,5.09
2018-12-10T15:52:22.834Z,5.11
2018-12-10T15:53:24.248Z,5.02
2018-12-10T15:54:27.205Z,5.02
2018-12-10T15:55:28.602Z,5.02
2018-12-10T15:56:29.992Z,5.04
2018-12-10T15:57:33.264Z,4.97
2018-12-10T15:58:38.906Z,5.02
2018-12-10T15:59:40.287Z,4.99
2018-12-10T16:00:42.510Z,4.93
2018-12-10T16:01:43.894Z,4.97
2018-12-10T16:02:50.895Z,4.99
2018-12-10T16:03:52.347Z,5.04
2018-12-10T16:04:53.736Z,4.97
2018-12-10T16:05:57.571Z,5.02
2018-12-10T16:07:02.243Z,4.97
2018-12-10T16:08:04.471Z,5.04
2018-12-10T16:09:05.861Z,5.02
2018-12-10T16:10:07.245Z,5.06
2018-12-10T16:11:08.629Z,5.06
2018-12-10T16:12:10.006Z,5.15
2018-12-10T16:13:11.381Z,5.04
2018-12-10T16:14:12.766Z,4.99
2018-12-10T16:15:14.144Z,5.02
2018-12-10T16:16:15.525Z,4.97
2018-12-10T16:17:16.902Z,5.01
2018-12-10T16:18:18.288Z,4.97
2018-12-10T16:19:19.682Z,5.01
2018-12-10T16:20:21.074Z,4.97
2018-12-10T16:21:22.480Z,4.99
2018-12-10T16:22:23.852Z,4.96
2018-12-10T16:23:25.244Z,4.99
2018-12-10T16:24:26.624Z,4.99
2018-12-10T16:25:28.009Z,5.06
2018-12-10T16:26:29.401Z,5.08
2018-12-10T16:27:30.796Z,5.11
2018-12-10T16:28:32.179Z,5.09
2018-12-10T16:29:33.575Z,5.06
2018-12-10T16:30:34.953Z,5.08
2018-12-10T16:31:36.345Z,5.11
2018-12-10T16:32:37.727Z,5.08
2018-12-10T16:33:39.109Z,5.05
2018-12-10T16:34:40.485Z,5.14
2018-12-10T16:35:41.880Z,5.14
2018-12-10T16:36:43.261Z,5.15
2018-12-10T16:37:44.713Z,5.14
2018-12-10T16:38:46.101Z,5.11
2018-12-10T16:39:47.476Z,5.08
2018-12-10T16:40:48.860Z,5.04
2018-12-10T16:41:50.244Z,5.14
2018-12-10T16:42:51.634Z,5.09
2018-12-10T16:43:53.017Z,4.99
2018-12-10T16:44:54.409Z,5.14
2018-12-10T16:45:55.792Z,5.02
2018-12-10T16:46:57.172Z,5.06
2018-12-10T16:47:58.556Z,5.08
2018-12-10T16:48:59.932Z,5.11
2018-12-10T16:50:01.309Z,5.11
2018-12-10T16:51:02.690Z,5.11
2018-12-10T16:52:04.085Z,5.08
2018-12-10T16:53:05.466Z,5.14
2018-12-10T16:54:06.847Z,5.08
2018-12-10T16:55:08.230Z,5.11
2018-12-10T16:56:09.611Z,5.06
2018-12-10T16:57:10.993Z,5.08
2018-12-10T16:58:12.380Z,5.12
2018-12-10T16:59:13.755Z,5.06
2018-12-10T17:00:15.252Z,5.17
2018-12-10T17:01:16.642Z,5.05
2018-12-10T17:02:18.023Z,5.17
2018-12-10T17:03:19.408Z,5.20
2018-12-10T17:04:20.794Z,5.20
2018-12-10T17:05:22.193Z,5.05
2018-12-10T17:06:23.598Z,5.22
2018-12-10T17:07:24.976Z,5.19
2018-12-10T17:08:26.362Z,5.19
2018-12-10T17:09:27.740Z,5.17
2018-12-10T17:10:29.138Z,5.12
2018-12-10T17:11:30.525Z,5.11
2018-12-10T17:12:31.914Z,5.15
2018-12-10T17:13:33.293Z,5.17
2018-12-10T17:14:34.688Z,5.20
2018-12-10T17:15:36.060Z,5.22
2018-12-10T17:16:37.443Z,5.14
2018-12-10T17:17:38.825Z,5.15
2018-12-10T17:18:40.204Z,5.19
2018-12-10T17:19:41.585Z,5.09
2018-12-10T17:20:43.811Z,5.22
2018-12-10T17:21:45.219Z,5.22
2018-12-10T17:22:46.584Z,5.17
2018-12-10T17:23:47.968Z,5.19
2018-12-10T17:24:49.359Z,5.17
2018-12-10T17:25:50.771Z,5.14
2018-12-10T17:26:52.142Z,5.09
2018-12-10T17:27:53.525Z,5.09
2018-12-10T17:28:54.908Z,5.12
2018-12-10T17:29:56.298Z,5.04
2018-12-10T17:30:57.676Z,5.09
2018-12-10T17:31:59.069Z,5.06
2018-12-10T17:33:00.490Z,5.09
2018-12-10T17:34:01.880Z,5.02
2018-12-10T17:35:03.898Z,5.06
2018-12-10T17:36:05.290Z,4.97
2018-12-10T17:37:06.666Z,4.97
2018-12-10T17:38:08.045Z,4.99
2018-12-10T17:39:09.434Z,4.99
2018-12-10T17:40:10.818Z,4.94
2018-12-10T17:41:12.195Z,4.94
2018-12-10T17:42:13.585Z,4.99
2018-12-10T17:43:14.960Z,4.97
2018-12-10T17:44:16.356Z,4.97
2018-12-10T17:45:17.748Z,4.99
2018-12-10T17:46:19.120Z,4.96
2018-12-10T17:47:20.503Z,5.02
2018-12-10T17:48:21.885Z,4.99
2018-12-10T17:49:23.268Z,5.01
2018-12-10T17:50:24.651Z,4.94
2018-12-10T17:51:26.033Z,4.99
2018-12-10T17:52:27.410Z,4.94
2018-12-10T17:53:28.797Z,4.97
2018-12-10T17:54:30.188Z,4.97
2018-12-10T17:55:31.559Z,4.96
2018-12-10T17:56:32.969Z,4.96
2018-12-10T17:57:34.343Z,5.02
2018-12-10T17:58:35.733Z,4.94
2018-12-10T17:59:37.119Z,4.93
2018-12-10T18:00:38.512Z,4.96
2018-12-10T18:01:39.895Z,4.96
2018-12-10T18:02:41.282Z,4.93
2018-12-10T18:03:42.668Z,4.99
2018-12-10T18:04:44.052Z,4.96
2018-12-10T18:05:45.427Z,4.99
2018-12-10T18:06:46.814Z,4.99
2018-12-10T18:07:48.185Z,4.99
2018-12-10T18:08:49.571Z,4.97
2018-12-10T18:09:50.953Z,4.96
2018-12-10T18:10:52.330Z,4.94
2018-12-10T18:11:53.715Z,4.94
2018-12-10T18:12:55.099Z,4.94
2018-12-10T18:13:56.487Z,5.02
2018-12-10T18:14:57.873Z,5.01
2018-12-10T18:15:59.245Z,4.97
2018-12-10T18:17:00.625Z,5.04
2018-12-10T18:18:02.008Z,4.99
2018-12-10T18:19:03.393Z,5.06
2018-12-10T18:20:04.786Z,4.97
2018-12-10T18:21:06.171Z,5.09
2018-12-10T18:22:07.551Z,5.14
2018-12-10T18:23:08.926Z,5.08
2018-12-10T18:24:10.305Z,5.05
2018-12-10T18:25:11.681Z,4.96
2018-12-10T18:26:13.069Z,5.04
2018-12-10T18:27:14.449Z,4.94
2018-12-10T18:28:15.837Z,4.97
2018-12-10T18:29:17.214Z,5.02
2018-12-10T18:30:18.608Z,4.91
2018-12-10T18:31:19.994Z,4.99
2018-12-10T18:32:21.369Z,4.96
2018-12-10T18:33:22.762Z,5.11
2018-12-10T18:34:24.146Z,5.12
2018-12-10T18:35:25.522Z,5.12
2018-12-10T18:36:28.641Z,5.01
2018-12-10T18:37:30.042Z,5.08
2018-12-10T18:38:31.453Z,5.11
2018-12-10T18:39:32.844Z,5.14
2018-12-10T18:40:34.227Z,5.14
2018-12-10T18:41:35.659Z,5.12
2018-12-10T18:42:37.036Z,5.09
2018-12-10T18:43:38.434Z,5.09
2018-12-10T18:44:39.829Z,5.11
2018-12-10T18:45:43.470Z,5.06
2018-12-10T18:46:45.061Z,5.08
2018-12-10T18:47:46.501Z,5.02
2018-12-10T18:48:47.977Z,4.97
2018-12-10T18:49:49.239Z,5.04
2018-12-10T18:50:50.633Z,4.99
2018-12-10T18:51:52.017Z,5.02
2018-12-10T18:52:53.402Z,5.01
2018-12-10T18:53:54.773Z,4.97
2018-12-10T18:54:56.262Z,4.99
2018-12-10T18:55:57.641Z,4.99
2018-12-10T18:56:59.025Z,4.99
2018-12-10T18:58:00.523Z,4.97
2018-12-10T18:59:02.139Z,4.97
2018-12-10T19:00:03.516Z,4.99
2018-12-10T19:01:05.055Z,4.99
2018-12-10T19:02:06.436Z,4.97
2018-12-10T19:03:07.818Z,4.99
2018-12-10T19:04:09.200Z,4.97
2018-12-10T19:05:10.586Z,4.93
2018-12-10T19:06:11.961Z,4.97
2018-12-10T19:07:13.340Z,4.99
2018-12-10T19:08:14.806Z,4.99
2018-12-10T19:09:16.192Z,4.94
2018-12-10T19:10:17.585Z,4.97
2018-12-10T19:11:18.971Z,5.01
2018-12-10T19:12:20.352Z,5.02
2018-12-10T19:13:21.733Z,4.99
2018-12-10T19:14:23.114Z,4.99
2018-12-10T19:15:24.449Z,5.02
2018-12-10T19:16:25.803Z,5.01
2018-12-10T19:17:27.283Z,4.99
2018-12-10T19:18:28.671Z,4.96
2018-12-10T19:19:30.047Z,4.90
2018-12-10T19:20:31.641Z,4.91
2018-12-10T19:21:33.100Z,4.93
2018-12-10T19:22:34.367Z,4.93
2018-12-10T19:23:35.834Z,4.97
2018-12-10T19:24:37.216Z,4.90
2018-12-10T19:25:38.589Z,4.93
2018-12-10T19:26:40.225Z,4.91
2018-12-10T19:27:41.574Z,4.91
2018-12-10T19:28:42.947Z,4.93
2018-12-10T19:29:44.329Z,5.01
2018-12-10T19:30:45.744Z,4.93
2018-12-10T19:31:47.226Z,4.93
2018-12-10T19:32:48.464Z,4.91
2018-12-10T19:33:49.864Z,4.88
2018-12-10T19:34:51.250Z,4.87
2018-12-10T19:35:52.629Z,4.90
2018-12-10T19:36:54.035Z,4.91
2018-12-10T19:37:55.387Z,4.90
2018-12-10T19:38:56.778Z,4.93
2018-12-10T19:39:58.163Z,4.96
2018-12-10T19:40:59.539Z,4.94
2018-12-10T19:42:01.179Z,4.91
2018-12-10T19:43:02.559Z,4.97
2018-12-10T19:44:06.633Z,4.97
2018-12-10T19:45:08.024Z,4.93
2018-12-10T19:46:09.402Z,4.96
2018-12-10T19:47:10.780Z,4.96
2018-12-10T19:48:12.180Z,4.93
2018-12-10T19:49:13.656Z,4.96
2018-12-10T19:50:14.885Z,4.91
2018-12-10T19:51:16.351Z,4.91
2018-12-10T19:52:17.779Z,4.96
2018-12-10T19:53:19.193Z,4.88
2018-12-10T19:54:20.587Z,4.93
2018-12-10T19:55:21.972Z,4.97
2018-12-10T19:56:23.352Z,4.96
2018-12-10T19:57:24.742Z,4.88
2018-12-10T19:58:26.115Z,4.94
2018-12-10T19:59:27.496Z,4.97
2018-12-10T20:00:28.975Z,4.96
2018-12-10T20:01:30.370Z,4.90
2018-12-10T20:02:31.758Z,4.94
2018-12-10T20:03:33.169Z,4.96
2018-12-10T20:04:34.552Z,4.96
2018-12-10T20:05:35.938Z,4.93
2018-12-10T20:06:37.321Z,4.97
2018-12-10T20:07:40.513Z,4.97
2018-12-10T20:08:41.905Z,4.94
2018-12-10T20:09:43.285Z,4.91
2018-12-10T20:10:44.797Z,5.01
2018-12-10T20:11:46.171Z,4.97
2018-12-10T20:12:47.649Z,4.94
2018-12-10T20:13:49.147Z,4.93
2018-12-10T20:14:50.529Z,4.99
2018-12-10T20:15:51.907Z,4.96
2018-12-10T20:16:53.303Z,4.99
2018-12-10T20:17:54.686Z,4.91
2018-12-10T20:18:56.061Z,4.93
2018-12-10T20:19:57.452Z,4.93
2018-12-10T20:20:58.832Z,4.93
2018-12-10T20:22:00.204Z,4.88
2018-12-10T20:23:01.572Z,4.86
2018-12-10T20:24:02.957Z,4.88
2018-12-10T20:25:04.361Z,5.01
2018-12-10T20:26:05.731Z,4.87
2018-12-10T20:27:07.136Z,4.91
2018-12-10T20:28:08.509Z,4.88
2018-12-10T20:29:09.866Z,4.94
2018-12-10T20:30:11.270Z,4.91
2018-12-10T20:31:12.649Z,4.96
2018-12-10T20:32:14.028Z,4.96
2018-12-10T20:33:15.403Z,4.94
2018-12-10T20:34:16.853Z,4.94
2018-12-10T20:35:18.249Z,4.91
2018-12-10T20:36:19.631Z,4.90
2018-12-10T20:37:21.016Z,4.91
2018-12-10T20:38:22.560Z,4.90
2018-12-10T20:39:23.895Z,4.88
2018-12-10T20:40:25.271Z,4.90
2018-12-10T20:41:26.913Z,4.87
2018-12-10T20:42:28.296Z,4.96
2018-12-10T20:43:29.670Z,4.90
2018-12-10T20:44:31.093Z,4.84
2018-12-10T20:45:32.464Z,4.84
2018-12-10T20:46:33.871Z,4.86
2018-12-10T20:47:35.244Z,4.91
2018-12-10T20:48:36.618Z,4.91
2018-12-10T20:49:37.999Z,4.94
2018-12-10T20:50:39.384Z,4.88
2018-12-10T20:51:40.766Z,4.87
2018-12-10T20:52:42.144Z,4.87
2018-12-10T20:53:43.494Z,4.72
2018-12-10T20:54:44.867Z,4.90
2018-12-10T20:55:46.405Z,4.75
2018-12-10T20:56:47.780Z,4.83
2018-12-10T20:57:49.153Z,4.87
2018-12-10T20:58:50.637Z,4.84
2018-12-10T20:59:52.015Z,4.77
2018-12-10T21:00:53.391Z,4.84
2018-12-10T21:01:54.849Z,4.80
2018-12-10T21:02:56.237Z,4.77
2018-12-10T21:03:57.620Z,4.84
2018-12-10T21:04:59.007Z,4.72
2018-12-10T21:06:00.492Z,4.75
2018-12-10T21:07:01.882Z,4.84
2018-12-10T21:08:03.381Z,4.80
2018-12-10T21:09:04.769Z,4.83
2018-12-10T21:10:06.157Z,4.75
2018-12-10T21:11:07.639Z,4.80
2018-12-10T21:12:09.026Z,4.80
2018-12-10T21:13:10.566Z,4.84
2018-12-10T21:14:11.943Z,4.84
2018-12-10T21:15:13.326Z,4.80
2018-12-10T21:16:14.766Z,4.80
2018-12-10T21:17:16.189Z,4.83
2018-12-10T21:18:17.574Z,4.83
2018-12-10T21:19:19.014Z,4.79
2018-12-10T21:20:20.394Z,4.77
2018-12-10T21:21:21.771Z,4.80
2018-12-10T21:22:23.182Z,4.75
2018-12-10T21:23:24.562Z,4.77
2018-12-10T21:24:25.948Z,4.79
2018-12-10T21:25:27.459Z,4.79
2018-12-10T21:26:28.840Z,4.75
2018-12-10T21:27:30.228Z,4.74
2018-12-10T21:28:31.676Z,4.80
2018-12-10T21:29:33.058Z,4.88
2018-12-10T21:30:37.492Z,4.90
2018-12-10T21:31:38.871Z,4.79
2018-12-10T21:32:40.348Z,4.79
2018-12-10T21:33:41.723Z,4.87
2018-12-10T21:34:43.213Z,4.83
2018-12-10T21:35:45.071Z,4.96
2018-12-10T21:36:47.546Z,4.88
2018-12-10T21:37:48.985Z,4.93
2018-12-10T21:38:50.376Z,4.86
2018-12-10T21:39:52.038Z,4.94
2018-12-10T21:40:53.422Z,4.93
2018-12-10T21:41:54.800Z,4.99
2018-12-10T21:42:56.183Z,4.99
2018-12-10T21:43:57.685Z,4.96
2018-12-10T21:44:59.074Z,4.93
2018-12-10T21:46:00.450Z,4.97
2018-12-10T21:47:01.856Z,4.99
2018-12-10T21:48:03.234Z,4.99
2018-12-10T21:49:04.618Z,5.04
2018-12-10T21:50:06.012Z,4.99
2018-12-10T21:51:07.413Z,5.01
2018-12-10T21:52:08.824Z,4.99
2018-12-10T21:53:10.214Z,4.88
2018-12-10T21:54:11.596Z,4.99
2018-12-10T21:55:16.919Z,4.94
2018-12-10T21:56:14.328Z,4.91
2018-12-10T21:57:15.712Z,4.93
2018-12-10T21:58:17.136Z,4.99
2018-12-10T21:59:18.526Z,4.93
2018-12-10T22:00:20.002Z,4.97
2018-12-10T22:01:21.471Z,5.01
2018-12-10T22:02:22.853Z,4.94
2018-12-10T22:03:24.232Z,4.86
2018-12-10T22:04:25.616Z,4.90
2018-12-10T22:05:29.446Z,4.93
2018-12-10T22:06:30.825Z,4.93
2018-12-10T22:07:32.205Z,4.91
2018-12-10T22:08:33.609Z,4.93
2018-12-10T22:09:34.987Z,4.94
2018-12-10T22:10:36.373Z,4.91
2018-12-10T22:11:37.774Z,5.01
2018-12-10T22:12:39.147Z,4.93
2018-12-10T22:13:40.531Z,4.94
2018-12-10T22:14:41.949Z,4.94
2018-12-10T22:15:43.325Z,4.93
2018-12-10T22:16:44.747Z,4.94
2018-12-10T22:17:46.349Z,4.87
2018-12-10T22:18:47.706Z,4.93
2018-12-10T22:19:49.075Z,4.88
2018-12-10T22:20:50.761Z,4.86
2018-12-10T22:21:52.161Z,4.87
2018-12-10T22:22:53.564Z,4.84
2018-12-10T22:23:54.942Z,4.87
2018-12-10T22:24:56.330Z,4.90
2018-12-10T22:25:57.804Z,4.86
2018-12-10T22:26:59.184Z,4.88
2018-12-10T22:28:00.565Z,4.80
2018-12-10T22:29:01.943Z,4.79
2018-12-10T22:30:03.323Z,4.83
2018-12-10T22:31:04.827Z,4.77
2018-12-10T22:32:06.229Z,4.83
2018-12-10T22:33:07.611Z,4.80
2018-12-10T22:34:08.992Z,4.83
2018-12-10T22:35:10.369Z,4.84
2018-12-10T22:36:11.753Z,4.80
2018-12-10T22:37:13.256Z,4.84
2018-12-10T22:38:14.638Z,4.80
2018-12-10T22:39:16.019Z,4.83
2018-12-10T22:40:17.405Z,4.86
2018-12-10T22:41:18.777Z,4.80
